Terminal Aerodrome Forecast
Issued by NWS Riverton, WY

Home | Current Version | Previous Version | Text Only | Print | Product List | Glossary On
Versions: 1 2 3 4 5 6 7 8 9 10 11 12
000
FTUS45 KRIW 232326
TAFRIW
TAF
KRIW 232326Z 2400/2424 24012G20KT P6SM VCTS SCT050CB BKN080
     FM240200 24010KT P6SM VCSH SCT060 BKN090
     FM240600 29008KT P6SM OVC080
     FM241500 27007KT P6SM SCT080 BKN140=

USA.gov is the U.S. government's official web portal to all federal, state and local government web resources and services.